sensor_id;sensor_type;location;lat;lon;timestamp;pressure;altitude;pressure_sealevel;temperature;humidity
3150;BME280;32503;47.748;8.960;2023-08-21T00:00:09;97341.56;;;27.40;57.37
3150;BME280;32503;47.748;8.960;2023-08-21T00:02:39;97337.56;;;27.41;57.49
3150;BME280;32503;47.748;8.960;2023-08-21T00:05:08;97334.28;;;27.33;57.60
3150;BME280;32503;47.748;8.960;2023-08-21T00:07:36;97336.28;;;27.33;57.59
3150;BME280;32503;47.748;8.960;2023-08-21T00:10:05;97337.13;;;27.20;58.21
3150;BME280;32503;47.748;8.960;2023-08-21T00:12:33;97338.34;;;27.19;57.94
3150;BME280;32503;47.748;8.960;2023-08-21T00:15:01;97335.81;;;27.12;58.39
3150;BME280;32503;47.748;8.960;2023-08-21T00:17:28;97329.34;;;27.06;58.68
3150;BME280;32503;47.748;8.960;2023-08-21T00:19:56;97335.19;;;27.08;58.30
3150;BME280;32503;47.748;8.960;2023-08-21T00:22:25;97341.34;;;27.03;58.70
3150;BME280;32503;47.748;8.960;2023-08-21T00:24:52;97344.41;;;27.05;58.28
3150;BME280;32503;47.748;8.960;2023-08-21T00:27:20;97335.91;;;26.99;58.75
3150;BME280;32503;47.748;8.960;2023-08-21T00:29:48;97332.06;;;26.97;58.58
3150;BME280;32503;47.748;8.960;2023-08-21T00:32:15;97331.25;;;26.96;58.82
3150;BME280;32503;47.748;8.960;2023-08-21T00:34:42;97323.53;;;26.91;58.58
3150;BME280;32503;47.748;8.960;2023-08-21T00:37:10;97325.09;;;26.92;58.76
3150;BME280;32503;47.748;8.960;2023-08-21T00:39:39;97326.97;;;26.95;58.71
3150;BME280;32503;47.748;8.960;2023-08-21T00:42:07;97325.22;;;26.89;59.01
3150;BME280;32503;47.748;8.960;2023-08-21T00:44:34;97331.16;;;26.78;59.44
3150;BME280;32503;47.748;8.960;2023-08-21T00:47:02;97320.97;;;26.75;59.30
3150;BME280;32503;47.748;8.960;2023-08-21T00:49:30;97304.50;;;26.58;59.42
3150;BME280;32503;47.748;8.960;2023-08-21T00:52:00;97324.56;;;26.62;59.97
3150;BME280;32503;47.748;8.960;2023-08-21T00:54:29;97323.13;;;26.58;59.93
3150;BME280;32503;47.748;8.960;2023-08-21T00:56:58;97316.59;;;26.52;60.18
3150;BME280;32503;47.748;8.960;2023-08-21T00:59:26;97326.81;;;26.55;60.28
3150;BME280;32503;47.748;8.960;2023-08-21T01:01:54;97323.50;;;26.47;60.46
3150;BME280;32503;47.748;8.960;2023-08-21T01:04:21;97333.63;;;26.41;60.66
3150;BME280;32503;47.748;8.960;2023-08-21T01:06:49;97325.31;;;26.41;60.64
3150;BME280;32503;47.748;8.960;2023-08-21T01:09:25;97326.06;;;26.41;60.41
3150;BME280;32503;47.748;8.960;2023-08-21T01:12:04;97325.31;;;26.41;60.43
3150;BME280;32503;47.748;8.960;2023-08-21T01:14:43;97327.78;;;26.26;60.83
3150;BME280;32503;47.748;8.960;2023-08-21T01:17:13;97328.81;;;26.19;61.34
3150;BME280;32503;47.748;8.960;2023-08-21T01:19:46;97333.91;;;26.21;61.25
3150;BME280;32503;47.748;8.960;2023-08-21T01:22:15;97333.78;;;26.24;60.96
3150;BME280;32503;47.748;8.960;2023-08-21T01:24:44;97335.00;;;26.23;60.96
3150;BME280;32503;47.748;8.960;2023-08-21T01:27:13;97342.09;;;26.24;61.02
3150;BME280;32503;47.748;8.960;2023-08-21T01:29:42;97350.19;;;26.19;61.09
3150;BME280;32503;47.748;8.960;2023-08-21T01:32:19;97351.34;;;26.08;61.52
3150;BME280;32503;47.748;8.960;2023-08-21T01:34:50;97347.25;;;26.00;61.52
3150;BME280;32503;47.748;8.960;2023-08-21T01:37:19;97347.69;;;25.99;61.75
3150;BME280;32503;47.748;8.960;2023-08-21T01:39:48;97350.56;;;25.95;62.01
3150;BME280;32503;47.748;8.960;2023-08-21T01:42:15;97347.03;;;25.95;61.91
3150;BME280;32503;47.748;8.960;2023-08-21T01:44:43;97348.13;;;25.97;61.51
3150;BME280;32503;47.748;8.960;2023-08-21T01:47:12;97346.69;;;25.92;61.71
3150;BME280;32503;47.748;8.960;2023-08-21T01:49:39;97346.00;;;25.88;62.22
3150;BME280;32503;47.748;8.960;2023-08-21T01:52:07;97351.00;;;25.81;62.16
3150;BME280;32503;47.748;8.960;2023-08-21T01:54:35;97346.91;;;25.72;62.33
3150;BME280;32503;47.748;8.960;2023-08-21T01:57:04;97357.31;;;25.68;62.72
3150;BME280;32503;47.748;8.960;2023-08-21T01:59:32;97353.00;;;25.67;62.53
3150;BME280;32503;47.748;8.960;2023-08-21T02:01:59;97355.31;;;25.69;62.31
3150;BME280;32503;47.748;8.960;2023-08-21T02:04:27;97358.53;;;25.67;62.14
3150;BME280;32503;47.748;8.960;2023-08-21T02:06:54;97353.09;;;25.64;62.58
3150;BME280;32503;47.748;8.960;2023-08-21T02:09:21;97351.69;;;25.59;62.67
3150;BME280;32503;47.748;8.960;2023-08-21T02:11:49;97350.69;;;25.53;62.83
3150;BME280;32503;47.748;8.960;2023-08-21T02:14:18;97354.22;;;25.53;63.04
3150;BME280;32503;47.748;8.960;2023-08-21T02:16:45;97355.56;;;25.49;62.67
3150;BME280;32503;47.748;8.960;2023-08-21T02:19:13;97352.47;;;25.47;63.39
3150;BME280;32503;47.748;8.960;2023-08-21T02:21:40;97352.91;;;25.45;62.97
3150;BME280;32503;47.748;8.960;2023-08-21T02:24:07;97356.44;;;25.46;63.01
3150;BME280;32503;47.748;8.960;2023-08-21T02:26:35;97343.34;;;25.46;62.95
3150;BME280;32503;47.748;8.960;2023-08-21T02:29:03;97349.44;;;25.41;63.67
3150;BME280;32503;47.748;8.960;2023-08-21T02:31:32;97348.22;;;25.29;63.84
3150;BME280;32503;47.748;8.960;2023-08-21T02:33:59;97360.50;;;25.28;63.50
3150;BME280;32503;47.748;8.960;2023-08-21T02:36:27;97356.66;;;25.26;63.72
3150;BME280;32503;47.748;8.960;2023-08-21T02:38:56;97360.19;;;25.26;64.13
3150;BME280;32503;47.748;8.960;2023-08-21T02:41:23;97357.84;;;25.25;64.12
3150;BME280;32503;47.748;8.960;2023-08-21T02:43:51;97368.13;;;25.24;64.24
3150;BME280;32503;47.748;8.960;2023-08-21T02:46:18;97361.47;;;25.22;63.92
3150;BME280;32503;47.748;8.960;2023-08-21T02:48:47;97363.72;;;25.27;63.36
3150;BME280;32503;47.748;8.960;2023-08-21T02:51:15;97360.50;;;25.28;63.36
3150;BME280;32503;47.748;8.960;2023-08-21T02:53:42;97362.84;;;25.30;62.96
3150;BME280;32503;47.748;8.960;2023-08-21T02:56:10;97358.06;;;25.30;62.60
3150;BME280;32503;47.748;8.960;2023-08-21T02:58:37;97360.72;;;25.34;62.46
3150;BME280;32503;47.748;8.960;2023-08-21T03:01:05;97362.41;;;25.31;62.31
